sensor_id;sensor_type;location;lat;lon;timestamp;temperature;humidity
11540;DHT22;5826;54.756;9.192;2024-01-16T00:01:19;-1.50;94.60
11540;DHT22;5826;54.756;9.192;2024-01-16T00:03:45;-1.40;94.90
11540;DHT22;5826;54.756;9.192;2024-01-16T00:06:11;-1.40;94.60
11540;DHT22;5826;54.756;9.192;2024-01-16T00:08:36;-1.40;94.50
11540;DHT22;5826;54.756;9.192;2024-01-16T00:11:02;-1.40;94.60
11540;DHT22;5826;54.756;9.192;2024-01-16T00:13:28;-1.10;94.80
11540;DHT22;5826;54.756;9.192;2024-01-16T00:15:53;-1.40;94.80
11540;DHT22;5826;54.756;9.192;2024-01-16T00:18:19;-1.40;94.90
11540;DHT22;5826;54.756;9.192;2024-01-16T00:20:44;-1.40;95.00
11540;DHT22;5826;54.756;9.192;2024-01-16T00:23:10;-1.30;95.40
11540;DHT22;5826;54.756;9.192;2024-01-16T00:25:36;-1.30;95.30
11540;DHT22;5826;54.756;9.192;2024-01-16T00:28:02;-1.20;95.30
11540;DHT22;5826;54.756;9.192;2024-01-16T00:30:27;-1.20;95.10
11540;DHT22;5826;54.756;9.192;2024-01-16T00:32:53;-1.10;95.10
11540;DHT22;5826;54.756;9.192;2024-01-16T00:35:18;-1.10;95.10
11540;DHT22;5826;54.756;9.192;2024-01-16T00:37:44;-1.10;94.90
11540;DHT22;5826;54.756;9.192;2024-01-16T00:40:10;-1.10;95.20
11540;DHT22;5826;54.756;9.192;2024-01-16T00:42:35;-1.00;95.10
11540;DHT22;5826;54.756;9.192;2024-01-16T00:45:01;-1.00;95.00
11540;DHT22;5826;54.756;9.192;2024-01-16T00:47:26;-1.00;94.80
11540;DHT22;5826;54.756;9.192;2024-01-16T00:49:52;-1.00;94.80
11540;DHT22;5826;54.756;9.192;2024-01-16T00:52:18;-0.40;95.00
11540;DHT22;5826;54.756;9.192;2024-01-16T00:54:44;-0.60;94.90
11540;DHT22;5826;54.756;9.192;2024-01-16T00:57:10;-1.10;94.90
11540;DHT22;5826;54.756;9.192;2024-01-16T00:59:36;-0.40;95.10
11540;DHT22;5826;54.756;9.192;2024-01-16T01:02:02;-0.70;95.10
11540;DHT22;5826;54.756;9.192;2024-01-16T01:04:29;-1.20;94.90
11540;DHT22;5826;54.756;9.192;2024-01-16T01:06:54;-1.20;94.90
11540;DHT22;5826;54.756;9.192;2024-01-16T01:09:20;-1.30;94.90
11540;DHT22;5826;54.756;9.192;2024-01-16T01:11:45;-1.30;94.90
11540;DHT22;5826;54.756;9.192;2024-01-16T01:14:11;-1.30;95.00
11540;DHT22;5826;54.756;9.192;2024-01-16T01:16:36;-1.40;95.00
11540;DHT22;5826;54.756;9.192;2024-01-16T01:19:02;-1.40;94.60
11540;DHT22;5826;54.756;9.192;2024-01-16T01:21:28;-1.50;94.80
11540;DHT22;5826;54.756;9.192;2024-01-16T01:23:54;-1.50;94.90
11540;DHT22;5826;54.756;9.192;2024-01-16T01:26:19;-1.30;94.90
11540;DHT22;5826;54.756;9.192;2024-01-16T01:28:45;-1.70;94.70
11540;DHT22;5826;54.756;9.192;2024-01-16T01:31:11;-1.70;94.80
11540;DHT22;5826;54.756;9.192;2024-01-16T01:33:36;-1.80;94.70
11540;DHT22;5826;54.756;9.192;2024-01-16T01:36:02;-1.80;94.80
11540;DHT22;5826;54.756;9.192;2024-01-16T01:38:27;-1.90;94.80
11540;DHT22;5826;54.756;9.192;2024-01-16T01:40:53;-1.90;94.70
11540;DHT22;5826;54.756;9.192;2024-01-16T01:43:25;-2.00;94.70
11540;DHT22;5826;54.756;9.192;2024-01-16T01:46:17;-2.00;94.80
11540;DHT22;5826;54.756;9.192;2024-01-16T01:48:44;-2.10;94.60
11540;DHT22;5826;54.756;9.192;2024-01-16T01:51:12;-2.10;94.70
11540;DHT22;5826;54.756;9.192;2024-01-16T01:53:38;-2.10;94.70
11540;DHT22;5826;54.756;9.192;2024-01-16T01:56:08;-2.10;94.70
11540;DHT22;5826;54.756;9.192;2024-01-16T01:58:34;-1.50;94.80
11540;DHT22;5826;54.756;9.192;2024-01-16T02:01:02;-1.50;94.90
11540;DHT22;5826;54.756;9.192;2024-01-16T02:03:29;-2.30;94.70
11540;DHT22;5826;54.756;9.192;2024-01-16T02:05:58;-2.30;94.60
11540;DHT22;5826;54.756;9.192;2024-01-16T02:08:24;-2.30;94.50
11540;DHT22;5826;54.756;9.192;2024-01-16T02:10:50;-2.30;94.50
11540;DHT22;5826;54.756;9.192;2024-01-16T02:13:16;-2.30;94.50
11540;DHT22;5826;54.756;9.192;2024-01-16T02:15:46;-2.40;94.30
11540;DHT22;5826;54.756;9.192;2024-01-16T02:18:11;-1.30;94.70
11540;DHT22;5826;54.756;9.192;2024-01-16T02:20:37;-2.40;94.60
11540;DHT22;5826;54.756;9.192;2024-01-16T02:23:03;-2.40;94.80
11540;DHT22;5826;54.756;9.192;2024-01-16T02:25:30;-2.40;94.60
11540;DHT22;5826;54.756;9.192;2024-01-16T02:27:56;-2.40;94.50
11540;DHT22;5826;54.756;9.192;2024-01-16T02:30:21;-1.90;94.80
11540;DHT22;5826;54.756;9.192;2024-01-16T02:32:47;-2.50;94.40
11540;DHT22;5826;54.756;9.192;2024-01-16T02:35:12;-2.50;94.30
11540;DHT22;5826;54.756;9.192;2024-01-16T02:37:38;-2.50;94.10
11540;DHT22;5826;54.756;9.192;2024-01-16T02:40:04;-2.60;94.20
11540;DHT22;5826;54.756;9.192;2024-01-16T02:42:32;-2.60;94.40
11540;DHT22;5826;54.756;9.192;2024-01-16T02:44:58;-2.60;94.40
11540;DHT22;5826;54.756;9.192;2024-01-16T02:47:23;-2.60;94.40
11540;DHT22;5826;54.756;9.192;2024-01-16T02:49:49;-2.50;94.30
11540;DHT22;5826;54.756;9.192;2024-01-16T02:52:14;-1.60;94.70
11540;DHT22;5826;54.756;9.192;2024-01-16T02:54:40;-2.30;94.60
11540;DHT22;5826;54.756;9.192;2024-01-16T02:57:05;-2.20;94.70
11540;DHT22;5826;54.756;9.192;2024-01-16T02:59:31;-2.10;94.70
11540;DHT22;5826;54.756;9.192;2024-01-16T03:01:56;-1.90;94.70
11540;DHT22;5826;54.756;9.192;2024-01-16T03:04:22;-1.80;94.80
11540;DHT22;5826;54.756;9.192;2024-01-16T03:06:47;-1.70;94.60
11540;DHT22;5826;54.756;9.192;2024-01-16T03:09:13;-1.70;94.40
11540;DHT22;5826;54.756;9.192;2024-01-16T03:11:38;-1.60;94.50
11540;DHT22;5826;54.756;9.192;2024-01-16T03:14:05;-1.50;94.70
11540;DHT22;5826;54.756;9.192;2024-01-16T03:16:31;-1.50;94.50
11540;DHT22;5826;54.756;9.192;2024-01-16T03:18:57;-1.40;94.40
11540;DHT22;5826;54.756;9.192;2024-01-16T03:21:22;-1.20;94.40
11540;DHT22;5826;54.756;9.192;2024-01-16T03:23:48;-1.30;94.40
11540;DHT22;5826;54.756;9.192;2024-01-16T03:26:14;-1.20;94.50
11540;DHT22;5826;54.756;9.192;2024-01-16T03:28:40;-1.20;94.60
11540;DHT22;5826;54.756;9.192;2024-01-16T03:31:06;-1.10;94.70
11540;DHT22;5826;54.756;9.192;2024-01-16T03:33:31;-1.00;94.70
11540;DHT22;5826;54.756;9.192;2024-01-16T03:35:57;-1.00;94.70
11540;DHT22;5826;54.756;9.192;2024-01-16T03:38:22;-0.90;94.70
11540;DHT22;5826;54.756;9.192;2024-01-16T03:40:48;-0.90;94.70
11540;DHT22;5826;54.756;9.192;2024-01-16T03:43:13;-0.80;94.70
11540;DHT22;5826;54.756;9.192;2024-01-16T03:45:39;-0.30;95.00
11540;DHT22;5826;54.756;9.192;2024-01-16T03:48:05;-0.70;94.80
11540;DHT22;5826;54.756;9.192;2024-01-16T03:50:30;-0.70;94.80
11540;DHT22;5826;54.756;9.192;2024-01-16T03:52:56;-0.70;94.70
11540;DHT22;5826;54.756;9.192;2024-01-16T03:55:21;-0.70;94.80
11540;DHT22;5826;54.756;9.192;2024-01-16T03:57:47;-0.10;95.10
11540;DHT22;5826;54.756;9.192;2024-01-16T04:00:12;-0.60;94.90
11540;DHT22;5826;54.756;9.192;2024-01-16T04:02:39;-0.60;94.80
11540;DHT22;5826;54.756;9.192;2024-01-16T04:05:04;-0.60;94.60
11540;DHT22;5826;54.756;9.192;2024-01-16T04:07:31;-0.60;94.70
11540;DHT22;5826;54.756;9.192;2024-01-16T04:09:56;-0.60;95.00
11540;DHT22;5826;54.756;9.192;2024-01-16T04:12:22;-0.60;94.70
11540;DHT22;5826;54.756;9.192;2024-01-16T04:14:47;-0.40;94.80
11540;DHT22;5826;54.756;9.192;2024-01-16T04:17:13;-0.10;94.90
11540;DHT22;5826;54.756;9.192;2024-01-16T04:19:38;0.10;95.00
11540;DHT22;5826;54.756;9.192;2024-01-16T04:22:05;-0.60;94.90
11540;DHT22;5826;54.756;9.192;2024-01-16T04:24:30;-0.60;94.90
11540;DHT22;5826;54.756;9.192;2024-01-16T04:26:56;-0.50;94.70
11540;DHT22;5826;54.756;9.192;2024-01-16T04:29:21;-0.50;94.80
11540;DHT22;5826;54.756;9.192;2024-01-16T04:31:47;-0.10;95.00
11540;DHT22;5826;54.756;9.192;2024-01-16T04:34:13;-0.50;94.80
11540;DHT22;5826;54.756;9.192;2024-01-16T04:36:38;-0.50;94.80
11540;DHT22;5826;54.756;9.192;2024-01-16T04:39:04;-0.40;95.00
11540;DHT22;5826;54.756;9.192;2024-01-16T04:41:29;-0.40;95.10
11540;DHT22;5826;54.756;9.192;2024-01-16T04:43:55;-0.40;95.00
11540;DHT22;5826;54.756;9.192;2024-01-16T04:46:20;-0.30;95.10
11540;DHT22;5826;54.756;9.192;2024-01-16T04:48:46;-0.30;95.10
11540;DHT22;5826;54.756;9.192;2024-01-16T04:51:11;-0.30;95.10
11540;DHT22;5826;54.756;9.192;2024-01-16T04:53:37;-0.20;95.20
11540;DHT22;5826;54.756;9.192;2024-01-16T04:56:02;-0.20;95.10
11540;DHT22;5826;54.756;9.192;2024-01-16T04:58:28;-0.20;95.10
11540;DHT22;5826;54.756;9.192;2024-01-16T05:00:53;-0.20;95.10
11540;DHT22;5826;54.756;9.192;2024-01-16T05:03:19;-0.20;95.00
11540;DHT22;5826;54.756;9.192;2024-01-16T05:05:45;-0.10;95.10
11540;DHT22;5826;54.756;9.192;2024-01-16T05:08:10;0.40;95.20
11540;DHT22;5826;54.756;9.192;2024-01-16T05:10:36;-0.10;95.00
11540;DHT22;5826;54.756;9.192;2024-01-16T05:13:01;0.00;95.20
11540;DHT22;5826;54.756;9.192;2024-01-16T05:15:27;-0.10;95.20
11540;DHT22;5826;54.756;9.192;2024-01-16T05:17:52;0.00;95.20
11540;DHT22;5826;54.756;9.192;2024-01-16T05:20:19;0.00;95.10
11540;DHT22;5826;54.756;9.192;2024-01-16T05:22:44;0.00;95.20
11540;DHT22;5826;54.756;9.192;2024-01-16T05:25:10;0.00;95.30
11540;DHT22;5826;54.756;9.192;2024-01-16T05:27:35;0.10;95.40
11540;DHT22;5826;54.756;9.192;2024-01-16T05:30:01;0.10;95.20
11540;DHT22;5826;54.756;9.192;2024-01-16T05:32:27;0.10;95.10
11540;DHT22;5826;54.756;9.192;2024-01-16T05:34:52;0.10;95.30
11540;DHT22;5826;54.756;9.192;2024-01-16T05:37:19;0.10;95.30
11540;DHT22;5826;54.756;9.192;2024-01-16T05:39:44;0.10;95.40
11540;DHT22;5826;54.756;9.192;2024-01-16T05:42:11;0.20;95.40
11540;DHT22;5826;54.756;9.192;2024-01-16T05:44:37;0.20;95.50
11540;DHT22;5826;54.756;9.192;2024-01-16T05:47:03;0.20;95.60
11540;DHT22;5826;54.756;9.192;2024-01-16T05:49:29;0.20;95.50
11540;DHT22;5826;54.756;9.192;2024-01-16T05:51:54;0.20;95.50
11540;DHT22;5826;54.756;9.192;2024-01-16T05:54:20;0.20;95.70
11540;DHT22;5826;54.756;9.192;2024-01-16T05:56:45;0.30;95.70
11540;DHT22;5826;54.756;9.192;2024-01-16T05:59:11;0.30;95.60
11540;DHT22;5826;54.756;9.192;2024-01-16T06:01:36;0.30;95.80
11540;DHT22;5826;54.756;9.192;2024-01-16T06:04:03;0.90;95.80
11540;DHT22;5826;54.756;9.192;2024-01-16T06:06:28;0.30;95.50
11540;DHT22;5826;54.756;9.192;2024-01-16T06:08:54;0.30;95.50
11540;DHT22;5826;54.756;9.192;2024-01-16T06:11:30;0.30;95.50
11540;DHT22;5826;54.756;9.192;2024-01-16T06:13:55;0.30;95.60
11540;DHT22;5826;54.756;9.192;2024-01-16T06:16:21;0.20;95.40
11540;DHT22;5826;54.756;9.192;2024-01-16T06:18:46;0.20;95.40
11540;DHT22;5826;54.756;9.192;2024-01-16T06:21:12;0.20;95.40
11540;DHT22;5826;54.756;9.192;2024-01-16T06:23:38;0.50;95.40
11540;DHT22;5826;54.756;9.192;2024-01-16T06:26:03;0.10;95.50
11540;DHT22;5826;54.756;9.192;2024-01-16T06:28:29;0.10;95.50
11540;DHT22;5826;54.756;9.192;2024-01-16T06:30:54;0.20;95.40
11540;DHT22;5826;54.756;9.192;2024-01-16T06:33:20;0.10;95.50
11540;DHT22;5826;54.756;9.192;2024-01-16T06:35:45;0.10;95.60
11540;DHT22;5826;54.756;9.192;2024-01-16T06:38:11;0.80;96.00
11540;DHT22;5826;54.756;9.192;2024-01-16T06:40:36;0.70;95.80
11540;DHT22;5826;54.756;9.192;2024-01-16T06:43:02;0.80;95.80
11540;DHT22;5826;54.756;9.192;2024-01-16T06:45:28;0.10;95.70
11540;DHT22;5826;54.756;9.192;2024-01-16T06:47:54;0.50;95.70
11540;DHT22;5826;54.756;9.192;2024-01-16T06:50:19;0.90;95.80
11540;DHT22;5826;54.756;9.192;2024-01-16T06:52:45;0.20;95.60
11540;DHT22;5826;54.756;9.192;2024-01-16T06:55:10;0.20;95.60
11540;DHT22;5826;54.756;9.192;2024-01-16T06:57:36;0.20;95.60
11540;DHT22;5826;54.756;9.192;2024-01-16T07:00:01;0.20;95.70
11540;DHT22;5826;54.756;9.192;2024-01-16T07:02:27;0.10;95.60
11540;DHT22;5826;54.756;9.192;2024-01-16T07:04:52;0.10;95.80
11540;DHT22;5826;54.756;9.192;2024-01-16T07:07:18;0.10;95.50
11540;DHT22;5826;54.756;9.192;2024-01-16T07:09:45;0.10;95.70
11540;DHT22;5826;54.756;9.192;2024-01-16T07:12:10;0.10;95.70
11540;DHT22;5826;54.756;9.192;2024-01-16T07:14:36;0.10;96.00
11540;DHT22;5826;54.756;9.192;2024-01-16T07:17:03;0.10;95.80
11540;DHT22;5826;54.756;9.192;2024-01-16T07:19:29;0.20;96.10
11540;DHT22;5826;54.756;9.192;2024-01-16T07:21:54;0.70;96.00
11540;DHT22;5826;54.756;9.192;2024-01-16T07:24:20;0.20;95.70
11540;DHT22;5826;54.756;9.192;2024-01-16T07:26:45;0.20;95.70
11540;DHT22;5826;54.756;9.192;2024-01-16T07:29:11;0.30;95.70
11540;DHT22;5826;54.756;9.192;2024-01-16T07:31:36;0.30;95.70
11540;DHT22;5826;54.756;9.192;2024-01-16T07:34:02;0.30;95.70
11540;DHT22;5826;54.756;9.192;2024-01-16T07:36:27;0.30;95.70
11540;DHT22;5826;54.756;9.192;2024-01-16T07:38:53;1.00;95.80
11540;DHT22;5826;54.756;9.192;2024-01-16T07:41:18;0.30;95.60
11540;DHT22;5826;54.756;9.192;2024-01-16T07:43:44;0.30;95.60
11540;DHT22;5826;54.756;9.192;2024-01-16T07:46:10;0.70;95.90
11540;DHT22;5826;54.756;9.192;2024-01-16T07:48:36;0.40;96.00
11540;DHT22;5826;54.756;9.192;2024-01-16T07:51:01;0.40;95.80
11540;DHT22;5826;54.756;9.192;2024-01-16T07:53:27;0.40;95.80
11540;DHT22;5826;54.756;9.192;2024-01-16T07:55:53;0.50;95.90
11540;DHT22;5826;54.756;9.192;2024-01-16T07:58:20;0.50;95.90
11540;DHT22;5826;54.756;9.192;2024-01-16T08:00:46;1.00;96.00
11540;DHT22;5826;54.756;9.192;2024-01-16T08:03:11;0.50;95.90
11540;DHT22;5826;54.756;9.192;2024-01-16T08:05:37;0.50;95.80
11540;DHT22;5826;54.756;9.192;2024-01-16T08:08:03;0.60;95.90
11540;DHT22;5826;54.756;9.192;2024-01-16T08:10:29;0.60;95.80
11540;DHT22;5826;54.756;9.192;2024-01-16T08:12:54;0.60;95.60
11540;DHT22;5826;54.756;9.192;2024-01-16T08:15:20;0.60;95.70
11540;DHT22;5826;54.756;9.192;2024-01-16T08:17:47;0.60;95.80
11540;DHT22;5826;54.756;9.192;2024-01-16T08:20:13;0.70;96.00
11540;DHT22;5826;54.756;9.192;2024-01-16T08:22:38;0.70;95.80
11540;DHT22;5826;54.756;9.192;2024-01-16T08:25:04;0.70;95.80
11540;DHT22;5826;54.756;9.192;2024-01-16T08:27:33;0.80;95.90
11540;DHT22;5826;54.756;9.192;2024-01-16T08:29:59;0.80;95.90
11540;DHT22;5826;54.756;9.192;2024-01-16T08:32:25;0.80;95.50
11540;DHT22;5826;54.756;9.192;2024-01-16T08:34:50;0.80;95.70
11540;DHT22;5826;54.756;9.192;2024-01-16T08:37:16;0.80;95.80
11540;DHT22;5826;54.756;9.192;2024-01-16T08:39:42;1.60;95.90
11540;DHT22;5826;54.756;9.192;2024-01-16T08:42:08;0.90;95.70
11540;DHT22;5826;54.756;9.192;2024-01-16T08:44:39;0.90;95.80
11540;DHT22;5826;54.756;9.192;2024-01-16T08:47:05;1.00;95.90
11540;DHT22;5826;54.756;9.192;2024-01-16T08:49:32;1.00;95.70
11540;DHT22;5826;54.756;9.192;2024-01-16T08:51:58;1.10;95.80
11540;DHT22;5826;54.756;9.192;2024-01-16T08:54:24;1.20;95.30
11540;DHT22;5826;54.756;9.192;2024-01-16T08:56:51;1.30;95.20
11540;DHT22;5826;54.756;9.192;2024-01-16T08:59:17;1.30;95.10
11540;DHT22;5826;54.756;9.192;2024-01-16T09:01:42;1.30;95.50
11540;DHT22;5826;54.756;9.192;2024-01-16T09:04:08;1.20;95.20
11540;DHT22;5826;54.756;9.192;2024-01-16T09:06:33;1.20;95.20
11540;DHT22;5826;54.756;9.192;2024-01-16T09:08:59;1.30;95.60
11540;DHT22;5826;54.756;9.192;2024-01-16T09:11:24;1.30;95.60
11540;DHT22;5826;54.756;9.192;2024-01-16T09:13:50;1.30;95.40
11540;DHT22;5826;54.756;9.192;2024-01-16T09:16:15;1.20;95.50
11540;DHT22;5826;54.756;9.192;2024-01-16T09:18:41;1.30;95.80
11540;DHT22;5826;54.756;9.192;2024-01-16T09:21:06;1.50;95.80
11540;DHT22;5826;54.756;9.192;2024-01-16T09:23:32;1.30;95.90
11540;DHT22;5826;54.756;9.192;2024-01-16T09:25:57;1.30;95.90
11540;DHT22;5826;54.756;9.192;2024-01-16T09:28:23;1.30;95.60
11540;DHT22;5826;54.756;9.192;2024-01-16T09:30:49;1.30;95.60
11540;DHT22;5826;54.756;9.192;2024-01-16T09:33:15;1.30;95.50
11540;DHT22;5826;54.756;9.192;2024-01-16T09:35:42;1.30;95.70
11540;DHT22;5826;54.756;9.192;2024-01-16T09:38:07;1.30;95.80
11540;DHT22;5826;54.756;9.192;2024-01-16T09:40:34;1.40;95.60
11540;DHT22;5826;54.756;9.192;2024-01-16T09:43:01;2.00;95.60
11540;DHT22;5826;54.756;9.192;2024-01-16T09:45:26;1.70;95.50
11540;DHT22;5826;54.756;9.192;2024-01-16T09:47:54;1.50;95.50
11540;DHT22;5826;54.756;9.192;2024-01-16T09:50:20;1.50;95.40
11540;DHT22;5826;54.756;9.192;2024-01-16T09:52:46;1.50;95.60
11540;DHT22;5826;54.756;9.192;2024-01-16T09:55:15;1.50;95.60
11540;DHT22;5826;54.756;9.192;2024-01-16T09:57:41;1.50;95.40
11540;DHT22;5826;54.756;9.192;2024-01-16T10:00:11;1.50;95.40
11540;DHT22;5826;54.756;9.192;2024-01-16T10:02:41;1.50;95.60
11540;DHT22;5826;54.756;9.192;2024-01-16T10:05:09;1.60;95.40
11540;DHT22;5826;54.756;9.192;2024-01-16T10:07:37;1.60;95.10
11540;DHT22;5826;54.756;9.192;2024-01-16T10:10:04;1.60;95.10
11540;DHT22;5826;54.756;9.192;2024-01-16T10:12:30;1.50;94.90
11540;DHT22;5826;54.756;9.192;2024-01-16T10:14:56;1.40;95.10
11540;DHT22;5826;54.756;9.192;2024-01-16T10:17:21;1.30;95.20
11540;DHT22;5826;54.756;9.192;2024-01-16T10:19:49;1.30;95.40
11540;DHT22;5826;54.756;9.192;2024-01-16T10:22:20;1.40;95.30
11540;DHT22;5826;54.756;9.192;2024-01-16T10:24:46;1.40;95.40
11540;DHT22;5826;54.756;9.192;2024-01-16T10:27:15;2.00;95.40
11540;DHT22;5826;54.756;9.192;2024-01-16T10:29:55;1.60;95.30
11540;DHT22;5826;54.756;9.192;2024-01-16T10:32:29;1.60;95.20
11540;DHT22;5826;54.756;9.192;2024-01-16T10:35:06;2.20;95.10
11540;DHT22;5826;54.756;9.192;2024-01-16T10:37:52;1.70;95.00
11540;DHT22;5826;54.756;9.192;2024-01-16T10:40:21;1.80;95.20
11540;DHT22;5826;54.756;9.192;2024-01-16T10:45:25;2.10;94.90
11540;DHT22;5826;54.756;9.192;2024-01-16T10:48:09;2.30;94.60
11540;DHT22;5826;54.756;9.192;2024-01-16T10:50:37;2.40;94.40
11540;DHT22;5826;54.756;9.192;2024-01-16T10:53:07;2.50;94.00
11540;DHT22;5826;54.756;9.192;2024-01-16T10:55:53;3.00;94.20
11540;DHT22;5826;54.756;9.192;2024-01-16T10:58:22;2.30;93.90
11540;DHT22;5826;54.756;9.192;2024-01-16T11:00:52;2.20;93.90
11540;DHT22;5826;54.756;9.192;2024-01-16T11:06:06;2.10;94.40
11540;DHT22;5826;54.756;9.192;2024-01-16T11:08:35;2.10;94.30
11540;DHT22;5826;54.756;9.192;2024-01-16T11:11:02;2.10;94.30
11540;DHT22;5826;54.756;9.192;2024-01-16T11:13:30;2.20;94.60
11540;DHT22;5826;54.756;9.192;2024-01-16T11:15:58;2.20;94.20
11540;DHT22;5826;54.756;9.192;2024-01-16T11:18:25;2.20;94.20
11540;DHT22;5826;54.756;9.192;2024-01-16T11:20:51;2.20;94.30
11540;DHT22;5826;54.756;9.192;2024-01-16T11:23:17;2.50;94.40
11540;DHT22;5826;54.756;9.192;2024-01-16T11:25:43;2.10;94.30
11540;DHT22;5826;54.756;9.192;2024-01-16T11:28:10;2.10;94.30
11540;DHT22;5826;54.756;9.192;2024-01-16T11:30:37;2.20;94.30
11540;DHT22;5826;54.756;9.192;2024-01-16T11:33:03;2.20;94.20
11540;DHT22;5826;54.756;9.192;2024-01-16T11:35:37;2.10;94.20
11540;DHT22;5826;54.756;9.192;2024-01-16T11:40:34;2.10;94.30
11540;DHT22;5826;54.756;9.192;2024-01-16T11:45:57;2.10;94.30
11540;DHT22;5826;54.756;9.192;2024-01-16T11:48:24;2.10;94.20
11540;DHT22;5826;54.756;9.192;2024-01-16T11:50:50;2.20;94.40
11540;DHT22;5826;54.756;9.192;2024-01-16T11:53:38;2.40;94.60
11540;DHT22;5826;54.756;9.192;2024-01-16T11:59:08;2.40;94.40
11540;DHT22;5826;54.756;9.192;2024-01-16T12:01:38;2.30;94.20
11540;DHT22;5826;54.756;9.192;2024-01-16T12:04:07;2.30;93.90
11540;DHT22;5826;54.756;9.192;2024-01-16T12:06:35;2.20;94.10
11540;DHT22;5826;54.756;9.192;2024-01-16T12:09:14;2.10;94.10
11540;DHT22;5826;54.756;9.192;2024-01-16T12:11:40;2.10;94.60
11540;DHT22;5826;54.756;9.192;2024-01-16T12:14:09;2.10;94.60
11540;DHT22;5826;54.756;9.192;2024-01-16T12:16:35;2.10;94.90
11540;DHT22;5826;54.756;9.192;2024-01-16T12:19:10;2.10;94.50
11540;DHT22;5826;54.756;9.192;2024-01-16T12:21:41;2.10;94.60
11540;DHT22;5826;54.756;9.192;2024-01-16T12:24:07;2.70;95.00
11540;DHT22;5826;54.756;9.192;2024-01-16T12:26:33;2.20;95.00
11540;DHT22;5826;54.756;9.192;2024-01-16T12:28:58;2.20;94.80
11540;DHT22;5826;54.756;9.192;2024-01-16T12:31:25;2.20;94.90
11540;DHT22;5826;54.756;9.192;2024-01-16T12:33:51;2.20;94.70
11540;DHT22;5826;54.756;9.192;2024-01-16T12:36:17;2.10;94.70
11540;DHT22;5826;54.756;9.192;2024-01-16T12:38:43;2.10;94.90
11540;DHT22;5826;54.756;9.192;2024-01-16T12:41:11;2.10;95.10
11540;DHT22;5826;54.756;9.192;2024-01-16T12:43:37;2.20;95.20
11540;DHT22;5826;54.756;9.192;2024-01-16T12:46:03;2.20;95.10
11540;DHT22;5826;54.756;9.192;2024-01-16T12:48:29;2.20;95.00
11540;DHT22;5826;54.756;9.192;2024-01-16T12:51:04;2.20;95.00
11540;DHT22;5826;54.756;9.192;2024-01-16T12:53:32;2.20;95.10
11540;DHT22;5826;54.756;9.192;2024-01-16T12:55:59;2.20;95.10
11540;DHT22;5826;54.756;9.192;2024-01-16T12:58:28;2.20;95.10
11540;DHT22;5826;54.756;9.192;2024-01-16T13:00:56;2.20;95.40
11540;DHT22;5826;54.756;9.192;2024-01-16T13:03:24;2.20;94.90
11540;DHT22;5826;54.756;9.192;2024-01-16T13:05:58;2.20;95.10
11540;DHT22;5826;54.756;9.192;2024-01-16T13:08:25;2.20;95.00
11540;DHT22;5826;54.756;9.192;2024-01-16T13:11:07;2.40;95.00
11540;DHT22;5826;54.756;9.192;2024-01-16T13:13:33;2.10;95.10
11540;DHT22;5826;54.756;9.192;2024-01-16T13:16:02;2.10;95.20
11540;DHT22;5826;54.756;9.192;2024-01-16T13:18:29;2.20;95.30
11540;DHT22;5826;54.756;9.192;2024-01-16T13:20:59;2.20;95.20
11540;DHT22;5826;54.756;9.192;2024-01-16T13:23:26;2.20;95.20
11540;DHT22;5826;54.756;9.192;2024-01-16T13:25:52;2.30;95.00
11540;DHT22;5826;54.756;9.192;2024-01-16T13:28:19;2.30;94.90
11540;DHT22;5826;54.756;9.192;2024-01-16T13:30:46;2.20;94.70
11540;DHT22;5826;54.756;9.192;2024-01-16T13:33:12;2.10;94.90
11540;DHT22;5826;54.756;9.192;2024-01-16T13:35:40;2.10;95.00
11540;DHT22;5826;54.756;9.192;2024-01-16T13:38:07;2.00;95.30
11540;DHT22;5826;54.756;9.192;2024-01-16T13:40:34;2.00;95.50
11540;DHT22;5826;54.756;9.192;2024-01-16T13:43:00;2.00;95.20
11540;DHT22;5826;54.756;9.192;2024-01-16T13:45:29;2.40;95.40
11540;DHT22;5826;54.756;9.192;2024-01-16T13:47:55;2.00;95.20
11540;DHT22;5826;54.756;9.192;2024-01-16T13:50:21;2.00;95.40
11540;DHT22;5826;54.756;9.192;2024-01-16T13:52:47;2.00;95.40
11540;DHT22;5826;54.756;9.192;2024-01-16T13:55:13;2.10;95.50
11540;DHT22;5826;54.756;9.192;2024-01-16T13:57:38;2.10;95.70
11540;DHT22;5826;54.756;9.192;2024-01-16T14:00:05;2.20;95.60
11540;DHT22;5826;54.756;9.192;2024-01-16T14:02:32;2.40;95.00
11540;DHT22;5826;54.756;9.192;2024-01-16T14:05:00;2.40;94.70
11540;DHT22;5826;54.756;9.192;2024-01-16T14:07:25;2.70;94.80
11540;DHT22;5826;54.756;9.192;2024-01-16T14:09:51;2.30;94.60
11540;DHT22;5826;54.756;9.192;2024-01-16T14:12:16;2.20;94.80
11540;DHT22;5826;54.756;9.192;2024-01-16T14:14:44;2.50;95.00
11540;DHT22;5826;54.756;9.192;2024-01-16T14:17:10;2.20;94.80
11540;DHT22;5826;54.756;9.192;2024-01-16T14:19:36;2.10;94.90
11540;DHT22;5826;54.756;9.192;2024-01-16T14:22:03;2.00;95.00
11540;DHT22;5826;54.756;9.192;2024-01-16T14:24:28;2.00;95.10
11540;DHT22;5826;54.756;9.192;2024-01-16T14:26:54;1.90;95.30
11540;DHT22;5826;54.756;9.192;2024-01-16T14:29:21;1.90;95.50
11540;DHT22;5826;54.756;9.192;2024-01-16T14:31:48;1.90;95.50
11540;DHT22;5826;54.756;9.192;2024-01-16T14:34:14;1.90;95.50
11540;DHT22;5826;54.756;9.192;2024-01-16T14:36:40;1.90;95.40
11540;DHT22;5826;54.756;9.192;2024-01-16T14:39:07;1.80;95.40
11540;DHT22;5826;54.756;9.192;2024-01-16T14:41:39;1.80;95.40
11540;DHT22;5826;54.756;9.192;2024-01-16T14:44:04;1.90;95.40
11540;DHT22;5826;54.756;9.192;2024-01-16T14:46:31;1.60;95.40
11540;DHT22;5826;54.756;9.192;2024-01-16T14:48:58;1.60;95.60
11540;DHT22;5826;54.756;9.192;2024-01-16T14:51:23;1.60;95.50
11540;DHT22;5826;54.756;9.192;2024-01-16T14:53:49;1.60;95.50
11540;DHT22;5826;54.756;9.192;2024-01-16T14:56:14;1.50;95.40
11540;DHT22;5826;54.756;9.192;2024-01-16T14:58:40;1.40;95.70
11540;DHT22;5826;54.756;9.192;2024-01-16T15:01:05;1.40;95.80
11540;DHT22;5826;54.756;9.192;2024-01-16T15:03:32;1.30;95.40
11540;DHT22;5826;54.756;9.192;2024-01-16T15:05:58;1.20;95.80
11540;DHT22;5826;54.756;9.192;2024-01-16T15:08:23;1.20;95.90
11540;DHT22;5826;54.756;9.192;2024-01-16T15:10:50;1.20;96.00
11540;DHT22;5826;54.756;9.192;2024-01-16T15:13:16;0.90;95.90
11540;DHT22;5826;54.756;9.192;2024-01-16T15:15:41;1.10;96.10
11540;DHT22;5826;54.756;9.192;2024-01-16T15:18:07;1.10;96.10
11540;DHT22;5826;54.756;9.192;2024-01-16T15:20:32;1.10;96.20
11540;DHT22;5826;54.756;9.192;2024-01-16T15:22:58;1.10;96.20
11540;DHT22;5826;54.756;9.192;2024-01-16T15:25:23;1.10;96.10
11540;DHT22;5826;54.756;9.192;2024-01-16T15:27:50;1.10;96.10
11540;DHT22;5826;54.756;9.192;2024-01-16T15:30:22;1.10;96.10
11540;DHT22;5826;54.756;9.192;2024-01-16T15:32:50;1.10;96.10
11540;DHT22;5826;54.756;9.192;2024-01-16T15:35:16;1.10;96.10
11540;DHT22;5826;54.756;9.192;2024-01-16T15:37:42;1.50;96.30
11540;DHT22;5826;54.756;9.192;2024-01-16T15:40:09;1.80;96.50
11540;DHT22;5826;54.756;9.192;2024-01-16T15:42:37;1.10;96.20
11540;DHT22;5826;54.756;9.192;2024-01-16T15:45:05;1.10;96.20
11540;DHT22;5826;54.756;9.192;2024-01-16T15:47:32;1.20;96.60
11540;DHT22;5826;54.756;9.192;2024-01-16T15:49:57;1.20;96.20
11540;DHT22;5826;54.756;9.192;2024-01-16T15:52:23;1.20;96.20
11540;DHT22;5826;54.756;9.192;2024-01-16T15:54:48;1.20;96.10
11540;DHT22;5826;54.756;9.192;2024-01-16T15:57:14;1.30;96.00
11540;DHT22;5826;54.756;9.192;2024-01-16T15:59:40;1.20;96.10
11540;DHT22;5826;54.756;9.192;2024-01-16T16:02:07;1.30;96.20
11540;DHT22;5826;54.756;9.192;2024-01-16T16:04:34;1.30;96.30
11540;DHT22;5826;54.756;9.192;2024-01-16T16:06:59;1.30;96.40